KAMA/AMA METAR and TAF weather

Enter ICAO airport designator
Station Type Date Time Source
KAMA METAR 2022/06/25 22:53 UTC NOAA

KAMA 252253Z 03024G38KT 10SM CLR 32/14 A3006 RMK AO2 PK WND 03038/2246 LTG DSNT E AND SE SLP119 T03220139


Station Type Date Time Source
KAMA Decoded METAR 2022/06/25 22:53 UTC NOAA

AMARILLO INTERNATIONAL AIRPORT, TX, United States (KAMA) 35-13N 101-43W 1093M
Jun 25, 2022 - 06:53 PM EDT / 2022.06.25 2253 UTC
Wind: from the NNE (030 degrees) at 28 MPH (24 KT) gusting to 44 MPH (38 KT):0
Visibility: 10 mile(s):0
Sky conditions: clear
Weather: Lightning observed
Temperature: 90.0 F (32.2 C)
Dew Point: 57.0 F (13.9 C)
Relative Humidity: 33%
Pressure (altimeter): 30.06 in. Hg (1017 hPa)
ob: KAMA 252253Z 03024G38KT 10SM CLR 32/14 A3006 RMK AO2 PK WND 03038/2246 LTG DSNT E AND SE SLP119 T03220139
cycle: 23

Station Type Date Time Source
KAMA TAF 2022/06/25 18:46 UTC NOAA

TAF KAMA 251743Z 2518/2618 35011KT P6SM FEW220
FM252100 02018G24KT P6SM VCTS SCT060CB
TEMPO 2522/2601 6SM TSRA BR BKN050CB
FM260300 01016KT P6SM BKN160
FM261100 04016KT P6SM OVC015

Example: see airport list